• Join FlightAware (Why Join?)
  • Login
  • US Flag 
07:11AM EDT


 

Airport Tracker/Info


-or-


 

Live Flight TrackerFlight Track Log ✈ AMF1990 ✈ 12-Dec-2013 ✈ KSAT - KMAF

Flight Track Log - Related Links

Times and Time Zones

All times are in EST time to prevent confusion due to time zone crossing. See the AMF1990 flight status page for this flight to view local times or setup timezone preferences in your user account.

Time Position Orientation Groundspeed Altitude Reporting Facility
EST Latitude Longitude Course Direction KTS MPH feet Rate Location/Type
08:45AM 29.5408 -98.4786 321° Northwest 123 142 1,600  Level Houston Center
08:45AM 29.5478 -98.4850 321° Northwest 133 153 2,000 2,460 Climbing Houston Center
08:46AM 29.5814 -98.5097 327° Northwest 159 183 4,600 2,460 Climbing Houston Center
08:47AM 29.6231 -98.5286 338° Northwest 189 217 6,800 2,460 Climbing Houston Center
08:48AM 29.6606 -98.5444 340° North 179 206 8,800 2,520 Climbing Houston Center
08:48AM 29.6711 -98.5494 338° Northwest 182 209 9,400 2,700 Climbing Houston Center
08:49AM 29.7114 -98.5653 341° North 179 206 11,600 2,460 Climbing Houston Center
08:50AM 29.7500 -98.6058 318° Northwest 188 216 14,000 2,280 Climbing Houston Center
08:51AM 29.7853 -98.6544 310° West 186 214 16,400 1,980 Climbing Houston Center
08:52AM 29.8169 -98.7011 308° West 186 214 18,100 1,620 Climbing Houston Center
08:53AM 29.8511 -98.7506 309° West 196 226 19,800 900 Climbing Houston Center
08:54AM 29.8919 -98.8108 308° West 227 261 20,000 60 Climbing Houston Center
08:55AM 29.9333 -98.8739 307° West 246 283 20,000  Level Houston Center
08:56AM 29.9814 -98.9383 311° West 246 283 20,000  Level Houston Center
08:57AM 30.0233 -98.9975 309° West 240 276 20,000  Level Houston Center
08:58AM 30.0706 -99.0597 311° West 240 276 20,000  Level Houston Center
08:59AM 30.1083 -99.1139 309° West 241 277 20,000  Level Houston Center
09:00AM 30.1497 -99.1753 308° West 243 280 20,000  Level Houston Center
09:01AM 30.1919 -99.2353 309° West 242 278 20,000  Level Houston Center
09:02AM 30.2406 -99.3078 308° West 240 276 20,000  Level Houston Center
09:03AM 30.2839 -99.3672 310° West 241 277 20,000  Level Houston Center
09:04AM 30.3258 -99.4275 309° West 241 277 20,000  Level Houston Center
09:05AM 30.3681 -99.4867 310° West 240 276 20,000  Level Houston Center
09:06AM 30.4111 -99.5461 310° West 241 277 20,000  Level Houston Center
09:07AM 30.4531 -99.6056 309° West 241 277 20,000  Level Houston Center
09:08AM 30.5036 -99.6767 310° West 239 275 20,000  Level Houston Center
09:09AM 30.5453 -99.7381 308° West 243 280 20,000  Level Houston Center
09:11AM 30.5858 -99.8006 307° West 244 281 20,000  Level Houston Center
09:12AM 30.6236 -99.8639 305° West 241 277 20,000  Level Houston Center
09:13AM 30.6631 -99.9283 305° West 245 282 20,000  Level Houston Center
09:14AM 30.7072 -100.0031 305° West 237 273 20,000  Level Houston Center
09:15AM 30.7472 -100.0672 306° West 242 278 20,000  Level Houston Center
09:16AM 30.7836 -100.1317 303° West 242 278 20,000  Level Houston Center
09:17AM 30.8189 -100.1983 302° West 242 278 20,000  Level Houston Center
09:18AM 30.8531 -100.2628 302° West 238 274 20,000  Level Houston Center
09:19AM 30.8883 -100.3286 302° West 239 275 20,000  Level Houston Center
09:20AM 30.9322 -100.4069 303° West 241 277 20,000  Level Houston Center
09:21AM 30.9686 -100.4700 304° West 238 274 20,000  Level Houston Center
09:22AM 31.0067 -100.5353 304° West 242 278 20,000  Level Houston Center
09:23AM 31.0442 -100.5994 304° West 241 277 20,000  Level Houston Center
09:24AM 31.0819 -100.6639 304° West 241 277 20,000 -60 Level Houston Center
09:25AM 31.1194 -100.7294 304° West 242 278 19,900 -600 Descending Houston Center
09:26AM 31.1664 -100.8147 303° West 256 295 18,800 -1,020 Descending Houston Center
09:27AM 31.2053 -100.8878 302° West 262 302 17,900 -660 Descending Houston Center
09:28AM 31.2450 -100.9603 303° West 264 304 17,500 -600 Descending Houston Center
09:29AM 31.2836 -101.0325 302° West 263 303 16,700 -1,020 Descending Houston Center
09:30AM 31.3250 -101.1006 305° West 258 297 15,500 -1,200 Descending Houston Center
09:32AM 31.4064 -101.2167 309° West 257 296 13,500 -1,440 Descending Fort Worth Center
09:33AM 31.4453 -101.2842 304° West 252 290 11,700 -1,800 Descending Fort Worth Center
09:34AM 31.4789 -101.3547 299° West 250 288 9,800 -1,500 Descending Fort Worth Center
09:35AM 31.5108 -101.4264 298° West 248 285 8,700 -840 Descending Fort Worth Center
09:36AM 31.5497 -101.4903 306° West 245 282 8,100 -360 Descending Fort Worth Center
09:37AM 31.5950 -101.5639 306° West 235 270 8,000 -60 Descending Fort Worth Center
09:38AM 31.6294 -101.6283 302° West 233 268 8,000  Level Fort Worth Center
09:39AM 31.6564 -101.6961 295° West 232 267 8,000  Level Fort Worth Center
09:40AM 31.6706 -101.7703 283° West 234 269 8,000  Level Fort Worth Center
09:41AM 31.6861 -101.8436 284° West 233 268 8,000  Level Fort Worth Center
09:42AM 31.7028 -101.9314 283° West 232 267 8,000  Level Fort Worth Center
09:43AM 31.7625 -101.9669 333° Northwest 247 284 8,000 -300 Level Fort Worth Center
09:44AM 31.8258 -101.9956 339° North 246 283 7,500 -780 Descending Fort Worth Center
09:45AM 31.8897 -102.0300 335° Northwest 251 289 6,500 -960 Descending Fort Worth Center
09:46AM 31.9517 -102.0658 334° Northwest 249 287 5,600 -720 Descending Fort Worth Center
09:47AM 32.0028 -102.1147 321° Northwest 240 276 5,100 -360 Descending Fort Worth Center
09:48AM 32.0339 -102.1872 297° West 211 243 4,900 -420 Descending Fort Worth Center
09:49AM 31.9989 -102.2100 209° Southwest 187 215 4,300 -960 Descending Fort Worth Center
09:50AM 31.9622 -102.2053 174° South 145 167 3,000 -1,260 Descending Fort Worth Center